Time;durP1;ratioP1;P1;durP2;ratioP2;P2;SDS_P1;SDS_P2;PMS_P1;PMS_P2;Temp;Humidity;BMP_temperature;BMP_pressure;BME280_temperature;BME280_humidity;BME280_pressure;Samples;Min_cycle;Max_cycle;Signal;HPM_P1;HPM_P2
2022/04/02 00:01:28;;;;;;;;;;;;;;;;;;5032605;28;1787;-70
2022/04/02 00:03:55;;;;;;;;;;;;;;;;;;5035443;28;1293;-70
2022/04/02 00:06:21;;;;;;;;;;;;;;;;;;5051898;28;1975;-70
2022/04/02 00:08:48;;;;;;;;;;;;;;;;;;5052099;28;1122;-70
2022/04/02 00:11:15;;;;;;;;;;;;;;;;;;5033853;28;1460;-70
2022/04/02 00:13:41;;;;;;;;;;;;;;;;;;5034455;28;1235;-69
2022/04/02 00:16:07;;;;;;;;;;;;;;;;;;5051524;28;1067;-70
2022/04/02 00:18:34;;;;;;;;;;;;;;;;;;5052209;28;1102;-70
2022/04/02 00:21:00;;;;;;;;;;;;;;;;;;5051753;28;1323;-70
2022/04/02 00:23:43;;;;;;;;;;;;;;;;;;5051935;28;936;-69
2022/04/02 00:26:11;;;;;;;;;;;;;;;;;;5051277;28;1922;-68
2022/04/02 00:28:38;;;;;;;;;;;;;;;;;;5052039;28;798;-70
2022/04/02 00:31:07;;;;;;;;;;;;;;;;;;5033628;28;1425;-70
2022/04/02 00:33:34;;;;;;;;;;;;;;;;;;5052100;28;865;-70
2022/04/02 00:36:01;;;;;;;;;;;;;;;;;;5051608;28;873;-70
2022/04/02 00:38:27;;;;;;;;;;;;;;;;;;5033686;28;1433;-68
2022/04/02 00:40:54;;;;;;;;;;;;;;;;;;5033547;28;1454;-70
2022/04/02 00:43:26;;;;;;;;;;;;;;;;;;5051339;28;870;-70
2022/04/02 00:45:52;;;;;;;;;;;;;;;;;;5033192;28;2022;-71
2022/04/02 00:48:19;;;;;;;;;;;;;;;;;;5033527;28;1546;-70
2022/04/02 00:50:45;;;;;;;;;;;;;;;;;;5033218;28;1432;-70
2022/04/02 00:53:11;;;;;;;;;;;;;;;;;;5051389;28;925;-69
2022/04/02 00:55:37;;;;;;;;;;;;;;;;;;5033182;28;1201;-68
2022/04/02 00:58:04;;;;;;;;;;;;;;;;;;5033245;28;1192;-70
2022/04/02 01:00:31;;;;;;;;;;;;;;;;;;5032633;28;1330;-68
2022/04/02 01:02:59;;;;;;;;;;;;;;;;;;5033438;28;1460;-69
2022/04/02 01:05:26;;;;;;;;;;;;;;;;;;5035594;28;1969;-70
2022/04/02 01:07:52;;;;;;;;;;;;;;;;;;5046405;28;1206;-69
2022/04/02 01:10:19;;;;;;;;;;;;;;;;;;5013148;28;1342;-70
2022/04/02 01:12:46;;;;;;;;;;;;;;;;;;5031427;28;853;-68
2022/04/02 01:15:16;;;;;;;;;;;;;;;;;;5013655;28;1240;-70
2022/04/02 01:17:48;;;;;;;;;;;;;;;;;;5012968;28;1539;-70
2022/04/02 01:20:25;;;;;;;;;;;;;;;;;;5012561;28;1415;-69
2022/04/02 01:22:56;;;;;;;;;;;;;;;;;;5013403;28;1706;-69
2022/04/02 01:25:23;;;;;;;;;;;;;;;;;;5013007;28;1978;-70
2022/04/02 01:27:51;;;;;;;;;;;;;;;;;;5013056;28;1223;-68
2022/04/02 01:30:17;;;;;;;;;;;;;;;;;;5019826;28;1540;-71
2022/04/02 01:32:44;;;;;;;;;;;;;;;;;;5032817;28;1293;-68
2022/04/02 01:35:13;;;;;;;;;;;;;;;;;;5032749;28;1219;-69
2022/04/02 01:37:47;;;;;;;;;;;;;;;;;;5032781;28;1566;-69
2022/04/02 01:40:17;;;;;;;;;;;;;;;;;;5032640;28;1265;-71
2022/04/02 01:42:45;;;;;;;;;;;;;;;;;;5032902;28;1500;-69
2022/04/02 01:45:13;;;;;;;;;;;;;;;;;;5032651;28;1971;-68
2022/04/02 01:47:51;;;;;;;;;;;;;;;;;;5032566;28;1345;-68
2022/04/02 01:50:19;;;;;;;;;;;;;;;;;;5032449;28;1448;-69
2022/04/02 01:52:49;;;;;;;;;;;;;;;;;;5032670;28;1303;-69
2022/04/02 01:55:19;;;;;;;;;;;;;;;;;;5032552;28;1351;-68
2022/04/02 01:57:52;;;;;;;;;;;;;;;;;;5032425;28;1261;-69
2022/04/02 02:00:27;;;;;;;;;;;;;;;;;;5032056;28;1383;-69
2022/04/02 02:02:54;;;;;;;;;;;;;;;;;;5032526;28;1380;-69
2022/04/02 02:05:20;;;;;;;;;;;;;;;;;;5018118;28;1969;-68
2022/04/02 02:07:49;;;;;;;;;;;;;;;;;;5012532;28;1673;-68
2022/04/02 02:10:18;;;;;;;;;;;;;;;;;;5012385;28;1376;-69
2022/04/02 02:13:01;;;;;;;;;;;;;;;;;;5012809;28;1499;-67
2022/04/02 02:15:39;;;;;;;;;;;;;;;;;;5012360;28;1024;-68
2022/04/02 02:18:06;;;;;;;;;;;;;;;;;;5063101;23;3553;-67
2022/04/02 02:20:33;;;;;;;;;;;;;;;;;;5090664;28;1252;-68
2022/04/02 02:22:59;;;;;;;;;;;;;;;;;;5091966;28;1314;-67
2022/04/02 02:25:26;;;;;;;;;;;;;;;;;;5110415;28;1918;-68
2022/04/02 02:27:52;;;;;;;;;;;;;;;;;;5081928;28;1312;-67
2022/04/02 02:30:22;;;;;;;;;;;;;;;;;;5071563;28;1121;-65
2022/04/02 02:32:49;;;;;;;;;;;;;;;;;;5089965;28;767;-67
2022/04/02 02:38:04;;;;;;;;;;;;;;;;;;5071456;28;1539;-67
2022/04/02 02:40:34;;;;;;;;;;;;;;;;;;5071631;28;1409;-68
2022/04/02 02:43:01;;;;;;;;;;;;;;;;;;5072644;28;1170;-67
2022/04/02 02:45:32;;;;;;;;;;;;;;;;;;5093669;28;1914;-68
2022/04/02 02:48:00;;;;;;;;;;;;;;;;;;5074999;28;1734;-67
2022/04/02 02:50:38;;;;;;;;;;;;;;;;;;5075301;28;1249;-67
2022/04/02 02:53:04;;;;;;;;;;;;;;;;;;5075364;28;1379;-67
2022/04/02 02:55:31;;;;;;;;;;;;;;;;;;5075303;28;1465;-66
2022/04/02 02:58:01;;;;;;;;;;;;;;;;;;5093070;28;1420;-67
2022/04/02 03:00:28;;;;;;;;;;;;;;;;;;5075032;28;1214;-67
2022/04/02 03:03:00;;;;;;;;;;;;;;;;;;5075275;28;1521;-67
2022/04/02 03:05:30;;;;;;;;;;;;;;;;;;5074932;28;1921;-67
2022/04/02 03:08:01;;;;;;;;;;;;;;;;;;5074785;28;1389;-66
2022/04/02 03:10:36;;;;;;;;;;;;;;;;;;5075098;28;1420;-67
2022/04/02 03:13:02;;;;;;;;;;;;;;;;;;5074917;28;1360;-69
2022/04/02 03:15:33;;;;;;;;;;;;;;;;;;5075242;28;1660;-69
2022/04/02 03:18:03;;;;;;;;;;;;;;;;;;5077290;28;1329;-68
2022/04/02 03:20:30;;;;;;;;;;;;;;;;;;5095575;28;825;-68
2022/04/02 03:22:57;;;;;;;;;;;;;;;;;;5074834;28;1340;-65
2022/04/02 03:25:25;;;;;;;;;;;;;;;;;;5074270;28;1971;-67
2022/04/02 03:27:51;;;;;;;;;;;;;;;;;;5092793;28;1368;-68
2022/04/02 03:30:18;;;;;;;;;;;;;;;;;;5074896;28;1251;-69
2022/04/02 03:32:47;;;;;;;;;;;;;;;;;;5074693;28;1474;-67
2022/04/02 03:35:15;;;;;;;;;;;;;;;;;;5074595;28;1187;-67
2022/04/02 03:37:44;;;;;;;;;;;;;;;;;;5074301;28;1451;-68
2022/04/02 03:40:14;;;;;;;;;;;;;;;;;;5074240;28;1261;-67
2022/04/02 03:42:41;;;;;;;;;;;;;;;;;;5074367;28;1405;-65
2022/04/02 03:45:10;;;;;;;;;;;;;;;;;;5074523;28;1550;-68
2022/04/02 03:47:37;;;;;;;;;;;;;;;;;;5073841;28;1933;-70
2022/04/02 03:50:04;;;;;;;;;;;;;;;;;;5074303;28;1304;-68
2022/04/02 03:52:44;;;;;;;;;;;;;;;;;;5074140;28;1442;-68
2022/04/02 03:55:15;;;;;;;;;;;;;;;;;;5073601;28;1210;-68
2022/04/02 03:57:47;;;;;;;;;;;;;;;;;;5073616;28;1340;-67
2022/04/02 04:00:14;;;;;;;;;;;;;;;;;;5073955;28;1357;-67
2022/04/02 04:02:44;;;;;;;;;;;;;;;;;;5074322;28;1235;-68
2022/04/02 04:05:15;;;;;;;;;;;;;;;;;;5073860;28;1258;-67
2022/04/02 04:07:44;;;;;;;;;;;;;;;;;;5073601;28;1987;-68
2022/04/02 04:10:11;;;;;;;;;;;;;;;;;;5072592;28;1859;-68
2022/04/02 04:12:38;;;;;;;;;;;;;;;;;;5072647;28;1491;-68
2022/04/02 04:15:07;;;;;;;;;;;;;;;;;;5073810;28;1299;-67
2022/04/02 04:17:35;;;;;;;;;;;;;;;;;;5073248;28;1448;-68
2022/04/02 04:20:02;;;;;;;;;;;;;;;;;;5074004;28;1209;-68
2022/04/02 04:22:29;;;;;;;;;;;;;;;;;;5090943;28;1499;-66
2022/04/02 04:24:57;;;;;;;;;;;;;;;;;;5073440;28;1565;-68
2022/04/02 04:27:24;;;;;;;;;;;;;;;;;;5073257;28;1918;-69
2022/04/02 04:29:50;;;;;;;;;;;;;;;;;;5091800;28;830;-69
2022/04/02 04:32:17;;;;;;;;;;;;;;;;;;5091214;28;1656;-67
2022/04/02 04:34:43;;;;;;;;;;;;;;;;;;5091384;28;762;-67
2022/04/02 04:37:09;;;;;;;;;;;;;;;;;;5073010;28;1561;-68
2022/04/02 04:39:38;;;;;;;;;;;;;;;;;;5072589;28;1608;-68
2022/04/02 04:42:07;;;;;;;;;;;;;;;;;;5072652;28;1620;-67
2022/04/02 04:44:35;;;;;;;;;;;;;;;;;;5072899;28;1672;-68
2022/04/02 04:47:03;;;;;;;;;;;;;;;;;;5072188;28;1965;-67
2022/04/02 04:49:34;;;;;;;;;;;;;;;;;;5072691;28;1655;-69
2022/04/02 04:52:05;;;;;;;;;;;;;;;;;;5071395;28;1597;-67
2022/04/02 04:54:33;;;;;;;;;;;;;;;;;;5072981;28;1417;-69
2022/04/02 04:57:03;;;;;;;;;;;;;;;;;;5072887;28;1328;-68
2022/04/02 04:59:31;;;;;;;;;;;;;;;;;;5073055;28;1380;-68
2022/04/02 05:01:59;;;;;;;;;;;;;;;;;;5077968;28;1315;-68
2022/04/02 05:04:26;;;;;;;;;;;;;;;;;;5079128;28;1234;-70
2022/04/02 05:06:54;;;;;;;;;;;;;;;;;;5071842;28;2284;-70
2022/04/02 05:09:21;;;;;;;;;;;;;;;;;;5072683;28;1372;-69
2022/04/02 05:11:49;;;;;;;;;;;;;;;;;;5078046;28;1207;-68
2022/04/02 05:14:17;;;;;;;;;;;;;;;;;;5084706;28;1258;-68
2022/04/02 05:16:48;;;;;;;;;;;;;;;;;;5077514;28;1489;-69
2022/04/02 05:19:15;;;;;;;;;;;;;;;;;;5079069;28;1330;-70
2022/04/02 05:21:42;;;;;;;;;;;;;;;;;;5080624;28;1653;-69
2022/04/02 05:24:12;;;;;;;;;;;;;;;;;;5080477;28;1229;-69
2022/04/02 05:26:47;;;;;;;;;;;;;;;;;;5072443;28;1913;-70
2022/04/02 05:29:14;;;;;;;;;;;;;;;;;;5072653;28;1395;-70
2022/04/02 05:31:41;;;;;;;;;;;;;;;;;;5071915;28;1509;-69
2022/04/02 05:34:09;;;;;;;;;;;;;;;;;;5071483;28;1558;-70
2022/04/02 05:36:37;;;;;;;;;;;;;;;;;;5090092;28;1580;-68
2022/04/02 05:39:03;;;;;;;;;;;;;;;;;;5072005;28;1463;-69
2022/04/02 05:41:29;;;;;;;;;;;;;;;;;;5090379;28;1051;-69
2022/04/02 05:43:55;;;;;;;;;;;;;;;;;;5071990;28;1592;-69
2022/04/02 05:46:22;;;;;;;;;;;;;;;;;;5071286;28;1918;-68
2022/04/02 05:48:49;;;;;;;;;;;;;;;;;;5090207;28;1549;-69
2022/04/02 05:51:17;;;;;;;;;;;;;;;;;;5090237;28;1537;-68
2022/04/02 05:53:43;;;;;;;;;;;;;;;;;;5090441;28;1628;-69
2022/04/02 05:56:09;;;;;;;;;;;;;;;;;;5090331;28;1138;-67
2022/04/02 05:58:37;;;;;;;;;;;;;;;;;;5090079;28;1631;-69
2022/04/02 06:01:03;;;;;;;;;;;;;;;;;;5090116;28;1122;-69
2022/04/02 06:03:29;;;;;;;;;;;;;;;;;;5089918;28;1588;-69
2022/04/02 06:05:55;;;;;;;;;;;;;;;;;;5071542;28;1569;-69
2022/04/02 06:08:23;;;;;;;;;;;;;;;;;;5089621;28;1914;-68
2022/04/02 06:10:49;;;;;;;;;;;;;;;;;;5090323;28;1438;-69
2022/04/02 06:13:15;;;;;;;;;;;;;;;;;;5089929;28;1621;-69
2022/04/02 06:15:41;;;;;;;;;;;;;;;;;;5090112;28;1411;-69
2022/04/02 06:18:07;;;;;;;;;;;;;;;;;;5091871;28;1399;-69
2022/04/02 06:20:34;;;;;;;;;;;;;;;;;;5093673;28;1588;-70
2022/04/02 06:23:00;;;;;;;;;;;;;;;;;;5093552;28;1585;-69
2022/04/02 06:25:28;;;;;;;;;;;;;;;;;;5075829;28;1478;-69
2022/04/02 06:27:54;;;;;;;;;;;;;;;;;;5075541;28;1922;-69
2022/04/02 06:30:21;;;;;;;;;;;;;;;;;;5093978;28;771;-69
2022/04/02 06:32:47;;;;;;;;;;;;;;;;;;5093948;28;1195;-70
2022/04/02 06:35:14;;;;;;;;;;;;;;;;;;5075751;28;1408;-70
2022/04/02 06:37:41;;;;;;;;;;;;;;;;;;5093340;28;1266;-71
2022/04/02 06:40:09;;;;;;;;;;;;;;;;;;5093796;28;833;-69
2022/04/02 06:42:37;;;;;;;;;;;;;;;;;;5093674;28;873;-69
2022/04/02 06:45:07;;;;;;;;;;;;;;;;;;5075605;28;1543;-70
2022/04/02 06:47:34;;;;;;;;;;;;;;;;;;5093250;28;1981;-69
2022/04/02 06:50:02;;;;;;;;;;;;;;;;;;5094084;28;1063;-70
2022/04/02 06:52:28;;;;;;;;;;;;;;;;;;5093653;28;1103;-69
2022/04/02 06:54:55;;;;;;;;;;;;;;;;;;5075374;28;1195;-69
2022/04/02 06:57:21;;;;;;;;;;;;;;;;;;5092959;28;1320;-68
2022/04/02 06:59:49;;;;;;;;;;;;;;;;;;5093461;28;709;-69
2022/04/02 07:02:15;;;;;;;;;;;;;;;;;;5093496;28;791;-67
2022/04/02 07:04:42;;;;;;;;;;;;;;;;;;5093160;28;913;-68
2022/04/02 07:07:08;;;;;;;;;;;;;;;;;;5093057;28;1906;-68
2022/04/02 07:09:35;;;;;;;;;;;;;;;;;;5093246;28;731;-70
2022/04/02 07:12:01;;;;;;;;;;;;;;;;;;5093271;28;1055;-71
2022/04/02 07:14:27;;;;;;;;;;;;;;;;;;5093249;28;865;-69
2022/04/02 07:16:55;;;;;;;;;;;;;;;;;;5092210;28;1490;-69
2022/04/02 07:19:22;;;;;;;;;;;;;;;;;;5092916;28;1534;-68
2022/04/02 07:21:49;;;;;;;;;;;;;;;;;;5092973;28;929;-68
2022/04/02 07:24:15;;;;;;;;;;;;;;;;;;5092995;28;830;-68
2022/04/02 07:26:44;;;;;;;;;;;;;;;;;;5074556;28;1969;-69
2022/04/02 07:29:10;;;;;;;;;;;;;;;;;;5092038;28;893;-69
2022/04/02 07:31:36;;;;;;;;;;;;;;;;;;5093405;28;1127;-70
2022/04/02 07:34:04;;;;;;;;;;;;;;;;;;5092471;28;766;-69
2022/04/02 07:36:36;;;;;;;;;;;;;;;;;;5074431;28;1459;-69
2022/04/02 07:39:03;;;;;;;;;;;;;;;;;;5093259;28;1323;-68
2022/04/02 07:41:32;;;;;;;;;;;;;;;;;;5092970;28;1123;-70
2022/04/02 07:44:03;;;;;;;;;;;;;;;;;;5074863;28;900;-69
2022/04/02 07:46:30;;;;;;;;;;;;;;;;;;5092308;28;1914;-70
2022/04/02 07:48:58;;;;;;;;;;;;;;;;;;5074368;28;1333;-69
2022/04/02 07:51:31;;;;;;;;;;;;;;;;;;5074516;28;825;-68
2022/04/02 07:53:58;;;;;;;;;;;;;;;;;;5092409;28;984;-68
2022/04/02 07:56:26;;;;;;;;;;;;;;;;;;5092205;28;845;-68
2022/04/02 07:58:52;;;;;;;;;;;;;;;;;;5092403;28;1335;-71
2022/04/02 08:01:19;;;;;;;;;;;;;;;;;;5074050;28;1119;-70
2022/04/02 08:03:46;;;;;;;;;;;;;;;;;;5074078;28;1486;-69
2022/04/02 08:06:15;;;;;;;;;;;;;;;;;;5091971;28;869;-68
2022/04/02 08:08:43;;;;;;;;;;;;;;;;;;5092099;28;1918;-69
2022/04/02 08:11:09;;;;;;;;;;;;;;;;;;5091800;28;1102;-70
2022/04/02 08:13:37;;;;;;;;;;;;;;;;;;5092171;28;933;-67
2022/04/02 08:16:03;;;;;;;;;;;;;;;;;;5091853;28;790;-68
2022/04/02 08:18:29;;;;;;;;;;;;;;;;;;5099549;22;3635;-69
2022/04/02 08:20:56;;;;;;;;;;;;;;;;;;5061609;28;1122;-69
2022/04/02 08:23:30;;;;;;;;;;;;;;;;;;5060784;28;858;-70
2022/04/02 08:26:04;;;;;;;;;;;;;;;;;;5072834;28;944;-68
2022/04/02 08:28:31;;;;;;;;;;;;;;;;;;5062237;28;1973;-70
2022/04/02 08:30:59;;;;;;;;;;;;;;;;;;5052250;28;621;-71
2022/04/02 08:33:38;;;;;;;;;;;;;;;;;;5051990;28;968;-70
2022/04/02 08:36:06;;;;;;;;;;;;;;;;;;5052345;28;731;-68
2022/04/02 08:38:35;;;;;;;;;;;;;;;;;;5051612;28;1270;-69
2022/04/02 08:41:26;;;;;;;;;;;;;;;;;;5051782;28;794;-69
2022/04/02 08:44:25;;;;;;;;;;;;;;;;;;5036553;28;1325;-69
2022/04/02 08:47:03;;;;;;;;;;;;;;;;;;4989236;28;1982;-70
2022/04/02 08:49:31;;;;;;;;;;;;;;;;;;4989844;28;1400;-69
2022/04/02 08:52:04;;;;;;;;;;;;;;;;;;5004798;28;1173;-70
2022/04/02 08:54:30;;;;;;;;;;;;;;;;;;5052027;28;798;-70
2022/04/02 08:56:59;;;;;;;;;;;;;;;;;;5051694;28;1142;-69
2022/04/02 08:59:33;;;;;;;;;;;;;;;;;;5052039;28;1375;-69
2022/04/02 09:02:05;;;;;;;;;;;;;;;;;;5051381;28;1088;-70
2022/04/02 09:04:43;;;;;;;;;;;;;;;;;;5051029;28;858;-70
2022/04/02 09:07:16;;;;;;;;;;;;;;;;;;5050839;28;1969;-70
2022/04/02 09:09:57;;;;;;;;;;;;;;;;;;5051048;28;1422;-70
2022/04/02 09:12:32;;;;;;;;;;;;;;;;;;5038441;28;1431;-70
2022/04/02 09:15:09;;;;;;;;;;;;;;;;;;5033053;28;1210;-69
2022/04/02 09:17:37;;;;;;;;;;;;;;;;;;5050415;28;1411;-71
2022/04/02 09:20:13;;;;;;;;;;;;;;;;;;5032811;28;1100;-70
2022/04/02 09:22:43;;;;;;;;;;;;;;;;;;5050510;28;1532;-70
2022/04/02 09:25:26;;;;;;;;;;;;;;;;;;5051073;28;1114;-70
2022/04/02 09:28:11;;;;;;;;;;;;;;;;;;5050303;28;1917;-69
2022/04/02 09:30:51;;;;;;;;;;;;;;;;;;5050269;28;1591;-70
2022/04/02 09:33:25;;;;;;;;;;;;;;;;;;5050292;28;1571;-69
2022/04/02 09:35:55;;;;;;;;;;;;;;;;;;5048250;28;1674;-70
2022/04/02 09:38:37;;;;;;;;;;;;;;;;;;5050216;28;1722;-69
2022/04/02 09:41:06;;;;;;;;;;;;;;;;;;5050765;28;1061;-69
2022/04/02 09:43:34;;;;;;;;;;;;;;;;;;5050689;28;1586;-70
2022/04/02 09:46:11;;;;;;;;;;;;;;;;;;5050276;28;1161;-70
2022/04/02 09:48:42;;;;;;;;;;;;;;;;;;5050136;28;1971;-69
2022/04/02 09:51:08;;;;;;;;;;;;;;;;;;5050121;28;1587;-70
2022/04/02 09:53:35;;;;;;;;;;;;;;;;;;5050342;28;1436;-70
2022/04/02 09:56:05;;;;;;;;;;;;;;;;;;5050168;28;1096;-70
2022/04/02 09:58:41;;;;;;;;;;;;;;;;;;5050582;28;1575;-69
2022/04/02 10:01:08;;;;;;;;;;;;;;;;;;5050200;28;1708;-70
2022/04/02 10:03:38;;;;;;;;;;;;;;;;;;5050313;28;1618;-70
2022/04/02 10:06:13;;;;;;;;;;;;;;;;;;5050019;28;1627;-69
2022/04/02 10:08:39;;;;;;;;;;;;;;;;;;5049820;28;1973;-69
2022/04/02 10:11:06;;;;;;;;;;;;;;;;;;5049258;28;1979;-69
2022/04/02 10:13:34;;;;;;;;;;;;;;;;;;5043797;28;1511;-69
2022/04/02 10:16:00;;;;;;;;;;;;;;;;;;5050096;28;1163;-70
2022/04/02 10:18:27;;;;;;;;;;;;;;;;;;5049894;28;1296;-69
2022/04/02 10:20:54;;;;;;;;;;;;;;;;;;5032488;28;1180;-69
2022/04/02 10:23:22;;;;;;;;;;;;;;;;;;5032111;28;830;-69
2022/04/02 10:25:58;;;;;;;;;;;;;;;;;;5050066;28;870;-69
2022/04/02 10:28:28;;;;;;;;;;;;;;;;;;5049744;28;1918;-69
2022/04/02 10:30:54;;;;;;;;;;;;;;;;;;5050150;28;1088;-69
2022/04/02 10:33:27;;;;;;;;;;;;;;;;;;5049964;28;1071;-70
2022/04/02 10:35:53;;;;;;;;;;;;;;;;;;5050161;28;1145;-70
2022/04/02 10:38:25;;;;;;;;;;;;;;;;;;5050492;28;1453;-69
2022/04/02 10:40:52;;;;;;;;;;;;;;;;;;5050299;28;774;-69
2022/04/02 10:43:28;;;;;;;;;;;;;;;;;;5050404;28;945;-70
2022/04/02 10:45:54;;;;;;;;;;;;;;;;;;5050470;28;986;-70
2022/04/02 10:48:24;;;;;;;;;;;;;;;;;;5049979;28;1914;-70
2022/04/02 10:50:50;;;;;;;;;;;;;;;;;;5050084;28;909;-70
2022/04/02 10:53:17;;;;;;;;;;;;;;;;;;5049934;28;1071;-69
2022/04/02 10:55:46;;;;;;;;;;;;;;;;;;5049863;28;1128;-70
2022/04/02 10:58:13;;;;;;;;;;;;;;;;;;5049642;28;1328;-70
2022/04/02 11:00:39;;;;;;;;;;;;;;;;;;5049821;28;1079;-70
2022/04/02 11:03:06;;;;;;;;;;;;;;;;;;5049994;28;1111;-70
2022/04/02 11:05:34;;;;;;;;;;;;;;;;;;5053873;28;826;-70
2022/04/02 11:08:04;;;;;;;;;;;;;;;;;;5052707;28;1982;-71
2022/04/02 11:10:31;;;;;;;;;;;;;;;;;;5052964;28;1636;-70
2022/04/02 11:13:00;;;;;;;;;;;;;;;;;;5054925;28;1603;-70
2022/04/02 11:15:27;;;;;;;;;;;;;;;;;;5039273;28;1562;-70
2022/04/02 11:17:54;;;;;;;;;;;;;;;;;;5054194;28;1412;-70
2022/04/02 11:20:21;;;;;;;;;;;;;;;;;;5053043;28;1567;-69
2022/04/02 11:22:49;;;;;;;;;;;;;;;;;;5035363;28;1512;-70
2022/04/02 11:25:16;;;;;;;;;;;;;;;;;;5052976;28;1625;-70
2022/04/02 11:27:42;;;;;;;;;;;;;;;;;;5052680;28;1911;-71
2022/04/02 11:30:11;;;;;;;;;;;;;;;;;;5052290;28;1626;-70
2022/04/02 11:32:38;;;;;;;;;;;;;;;;;;5052876;28;902;-71
2022/04/02 11:35:07;;;;;;;;;;;;;;;;;;5035079;28;1587;-70
2022/04/02 11:37:34;;;;;;;;;;;;;;;;;;5052507;28;1298;-71
2022/04/02 11:40:04;;;;;;;;;;;;;;;;;;5052395;28;1603;-70
2022/04/02 11:42:33;;;;;;;;;;;;;;;;;;5052645;28;984;-70
2022/04/02 11:44:59;;;;;;;;;;;;;;;;;;5052593;28;1555;-70
2022/04/02 11:47:28;;;;;;;;;;;;;;;;;;5051949;28;1559;-70
2022/04/02 11:49:55;;;;;;;;;;;;;;;;;;5052231;28;1922;-69
2022/04/02 11:52:21;;;;;;;;;;;;;;;;;;5052314;28;1693;-70
2022/04/02 11:54:58;;;;;;;;;;;;;;;;;;5052488;28;739;-70
2022/04/02 11:57:24;;;;;;;;;;;;;;;;;;5051928;28;1583;-69
2022/04/02 11:59:51;;;;;;;;;;;;;;;;;;5034722;28;1212;-70
2022/04/02 12:02:32;;;;;;;;;;;;;;;;;;5052002;28;1618;-69
2022/04/02 12:05:02;;;;;;;;;;;;;;;;;;5052082;28;791;-69
2022/04/02 12:07:31;;;;;;;;;;;;;;;;;;5051951;28;1527;-70
2022/04/02 12:09:57;;;;;;;;;;;;;;;;;;5051428;28;2114;-70
2022/04/02 12:12:24;;;;;;;;;;;;;;;;;;5052146;28;1563;-69
2022/04/02 12:14:52;;;;;;;;;;;;;;;;;;5051884;28;715;-69
2022/04/02 12:17:19;;;;;;;;;;;;;;;;;;5051996;28;1625;-69
2022/04/02 12:19:47;;;;;;;;;;;;;;;;;;5045558;28;1575;-70
2022/04/02 12:22:18;;;;;;;;;;;;;;;;;;5052318;28;1071;-70
2022/04/02 12:24:47;;;;;;;;;;;;;;;;;;5051847;28;1603;-70
2022/04/02 12:27:15;;;;;;;;;;;;;;;;;;5051751;28;1032;-70
2022/04/02 12:29:43;;;;;;;;;;;;;;;;;;5051683;28;1981;-70
2022/04/02 12:32:10;;;;;;;;;;;;;;;;;;5051798;28;1163;-71
2022/04/02 12:34:36;;;;;;;;;;;;;;;;;;5051702;28;1571;-70
2022/04/02 12:37:02;;;;;;;;;;;;;;;;;;5051620;28;836;-70
2022/04/02 12:39:30;;;;;;;;;;;;;;;;;;5051449;28;1591;-70
2022/04/02 12:41:56;;;;;;;;;;;;;;;;;;5051983;28;989;-70
2022/04/02 12:44:23;;;;;;;;;;;;;;;;;;5050889;28;1638;-70
2022/04/02 12:46:50;;;;;;;;;;;;;;;;;;5051199;28;807;-69
2022/04/02 12:49:28;;;;;;;;;;;;;;;;;;5050901;28;1910;-70
2022/04/02 12:52:04;;;;;;;;;;;;;;;;;;5046317;28;1505;-69
2022/04/02 12:54:32;;;;;;;;;;;;;;;;;;5048508;28;1629;-70
2022/04/02 12:57:10;;;;;;;;;;;;;;;;;;5048821;28;1614;-69
2022/04/02 12:59:36;;;;;;;;;;;;;;;;;;5048946;28;1493;-69
2022/04/02 13:02:02;;;;;;;;;;;;;;;;;;5049170;28;1094;-70
2022/04/02 13:04:29;;;;;;;;;;;;;;;;;;5046897;28;1562;-70
2022/04/02 13:06:56;;;;;;;;;;;;;;;;;;5049184;28;806;-70
2022/04/02 13:09:23;;;;;;;;;;;;;;;;;;5048897;28;1906;-69
2022/04/02 13:11:57;;;;;;;;;;;;;;;;;;5049047;28;1562;-70
2022/04/02 13:14:23;;;;;;;;;;;;;;;;;;5055038;28;1586;-69
2022/04/02 13:16:50;;;;;;;;;;;;;;;;;;5050723;28;1055;-70
2022/04/02 13:22:02;;;;;;;;;;;;;;;;;;5032763;28;1554;-70
2022/04/02 13:24:29;;;;;;;;;;;;;;;;;;5050146;28;1582;-70
2022/04/02 13:27:17;;;;;;;;;;;;;;;;;;5049481;28;880;-70
2022/04/02 13:30:00;;;;;;;;;;;;;;;;;;5024996;28;1910;-71
2022/04/02 13:32:33;;;;;;;;;;;;;;;;;;5050473;28;1589;-70
2022/04/02 13:35:02;;;;;;;;;;;;;;;;;;5050879;28;1051;-70
2022/04/02 13:37:32;;;;;;;;;;;;;;;;;;5050613;28;1323;-71
2022/04/02 13:40:01;;;;;;;;;;;;;;;;;;5032777;28;834;-70
2022/04/02 13:42:28;;;;;;;;;;;;;;;;;;5049421;28;1567;-70
2022/04/02 13:44:57;;;;;;;;;;;;;;;;;;5048650;28;1654;-70
2022/04/02 13:47:24;;;;;;;;;;;;;;;;;;5028821;28;1655;-69
2022/04/02 13:49:53;;;;;;;;;;;;;;;;;;5030691;28;1944;-70
2022/04/02 13:52:21;;;;;;;;;;;;;;;;;;5047390;28;1544;-70
2022/04/02 13:54:51;;;;;;;;;;;;;;;;;;5047489;28;1717;-70
2022/04/02 13:57:18;;;;;;;;;;;;;;;;;;5047873;28;1563;-69
2022/04/02 13:59:46;;;;;;;;;;;;;;;;;;5048152;28;1452;-69
2022/04/02 14:02:13;;;;;;;;;;;;;;;;;;5048238;28;1579;-69
2022/04/02 14:04:39;;;;;;;;;;;;;;;;;;5047825;28;1614;-70
2022/04/02 14:07:06;;;;;;;;;;;;;;;;;;5052636;28;1638;-70
2022/04/02 14:09:33;;;;;;;;;;;;;;;;;;5051519;28;1914;-70
2022/04/02 14:12:04;;;;;;;;;;;;;;;;;;5049761;28;1028;-71
2022/04/02 14:14:39;;;;;;;;;;;;;;;;;;5047987;28;1586;-70
2022/04/02 14:17:06;;;;;;;;;;;;;;;;;;5047948;28;1582;-68
2022/04/02 14:19:41;;;;;;;;;;;;;;;;;;5047032;28;1648;-69
2022/04/02 14:22:08;;;;;;;;;;;;;;;;;;5045091;28;1428;-70
2022/04/02 14:24:37;;;;;;;;;;;;;;;;;;5046999;28;1725;-69
2022/04/02 14:27:09;;;;;;;;;;;;;;;;;;5046991;28;1334;-69
2022/04/02 14:29:50;;;;;;;;;;;;;;;;;;5047319;28;1991;-69
2022/04/02 14:32:31;;;;;;;;;;;;;;;;;;5034826;28;1299;-70
2022/04/02 14:35:06;;;;;;;;;;;;;;;;;;5046903;28;1305;-70
2022/04/02 14:37:53;;;;;;;;;;;;;;;;;;5046106;28;1622;-70
2022/04/02 14:40:34;;;;;;;;;;;;;;;;;;5050701;28;1584;-70
2022/04/02 14:43:15;;;;;;;;;;;;;;;;;;5043484;28;1413;-70
2022/04/02 14:46:08;;;;;;;;;;;;;;;;;;5053012;28;1641;-70
2022/04/02 14:48:40;;;;;;;;;;;;;;;;;;5053175;28;1646;-71
2022/04/02 14:51:21;;;;;;;;;;;;;;;;;;5052398;28;1922;-70
2022/04/02 14:54:06;;;;;;;;;;;;;;;;;;5053483;28;814;-72
2022/04/02 14:56:56;;;;;;;;;;;;;;;;;;5053531;28;1047;-70
2022/04/02 15:02:32;;;;;;;;;;;;;;;;;;4937434;28;1904;-69
2022/04/02 15:05:00;;;;;;;;;;;;;;;;;;4932988;29;1111;-70
2022/04/02 15:07:36;;;;;;;;;;;;;;;;;;4933162;29;842;-69
2022/04/02 15:10:04;;;;;;;;;;;;;;;;;;4932991;29;1928;-70
2022/04/02 15:12:30;;;;;;;;;;;;;;;;;;4933085;29;925;-70
2022/04/02 15:14:58;;;;;;;;;;;;;;;;;;4933133;29;1123;-69
2022/04/02 15:17:26;;;;;;;;;;;;;;;;;;4939732;29;1525;-70
2022/04/02 15:19:52;;;;;;;;;;;;;;;;;;4951669;29;1650;-69
2022/04/02 15:22:25;;;;;;;;;;;;;;;;;;4951692;29;941;-69
2022/04/02 15:24:58;;;;;;;;;;;;;;;;;;4951884;29;1563;-70
2022/04/02 15:27:39;;;;;;;;;;;;;;;;;;4956783;28;1505;-69
2022/04/02 15:30:06;;;;;;;;;;;;;;;;;;4997804;28;1906;-68
2022/04/02 15:32:40;;;;;;;;;;;;;;;;;;4944031;29;1568;-67
2022/04/02 15:35:11;;;;;;;;;;;;;;;;;;4951325;29;740;-68
2022/04/02 15:37:37;;;;;;;;;;;;;;;;;;4950886;29;1619;-68
2022/04/02 15:40:08;;;;;;;;;;;;;;;;;;4951310;29;1615;-69
2022/04/02 15:42:38;;;;;;;;;;;;;;;;;;4951636;29;1575;-68
2022/04/02 15:45:06;;;;;;;;;;;;;;;;;;4951689;29;1579;-67
2022/04/02 15:47:36;;;;;;;;;;;;;;;;;;4938184;29;1670;-68
2022/04/02 15:50:05;;;;;;;;;;;;;;;;;;4929561;29;1914;-69
2022/04/02 15:52:31;;;;;;;;;;;;;;;;;;4947337;29;1560;-68
2022/04/02 15:55:01;;;;;;;;;;;;;;;;;;4949616;29;1124;-68
2022/04/02 15:57:29;;;;;;;;;;;;;;;;;;4948930;29;1642;-68
2022/04/02 16:00:14;;;;;;;;;;;;;;;;;;5014826;28;1476;-68
2022/04/02 16:02:41;;;;;;;;;;;;;;;;;;4949263;29;1536;-68
2022/04/02 16:05:08;;;;;;;;;;;;;;;;;;4949406;29;957;-68
2022/04/02 16:07:34;;;;;;;;;;;;;;;;;;4948605;29;1461;-68
2022/04/02 16:10:07;;;;;;;;;;;;;;;;;;4949215;29;1915;-68
2022/04/02 16:12:41;;;;;;;;;;;;;;;;;;4948481;29;1560;-68
2022/04/02 16:15:25;;;;;;;;;;;;;;;;;;4948682;29;1675;-68
2022/04/02 16:18:06;;;;;;;;;;;;;;;;;;4949198;29;1060;-68
2022/04/02 16:20:33;;;;;;;;;;;;;;;;;;4949307;28;1665;-66
2022/04/02 16:22:59;;;;;;;;;;;;;;;;;;4941066;28;2061;-67
2022/04/02 16:25:25;;;;;;;;;;;;;;;;;;4929493;28;1151;-68
2022/04/02 16:27:53;;;;;;;;;;;;;;;;;;5005008;28;1579;-68
2022/04/02 16:30:20;;;;;;;;;;;;;;;;;;4948566;29;1980;-68
2022/04/02 16:32:47;;;;;;;;;;;;;;;;;;4948251;29;1548;-68
2022/04/02 16:35:14;;;;;;;;;;;;;;;;;;4948952;28;1051;-68
2022/04/02 16:37:40;;;;;;;;;;;;;;;;;;4948667;28;1544;-69
2022/04/02 16:40:09;;;;;;;;;;;;;;;;;;4947848;29;1332;-69
2022/04/02 16:42:35;;;;;;;;;;;;;;;;;;4949465;29;1560;-68
2022/04/02 16:45:03;;;;;;;;;;;;;;;;;;4949996;29;1116;-68
2022/04/02 16:47:32;;;;;;;;;;;;;;;;;;4949028;29;1520;-67
2022/04/02 16:49:59;;;;;;;;;;;;;;;;;;4949480;29;1976;-69
2022/04/02 16:52:27;;;;;;;;;;;;;;;;;;4948214;29;1572;-68
2022/04/02 16:54:54;;;;;;;;;;;;;;;;;;4948839;29;1461;-68
2022/04/02 16:57:20;;;;;;;;;;;;;;;;;;4948656;28;1384;-68
2022/04/02 16:59:47;;;;;;;;;;;;;;;;;;4948636;29;1369;-68
2022/04/02 17:02:15;;;;;;;;;;;;;;;;;;4947073;28;1119;-68
2022/04/02 17:04:41;;;;;;;;;;;;;;;;;;4948296;29;1552;-68
2022/04/02 17:07:08;;;;;;;;;;;;;;;;;;4948598;29;1131;-68
2022/04/02 17:09:34;;;;;;;;;;;;;;;;;;4947867;29;1907;-69
2022/04/02 17:12:00;;;;;;;;;;;;;;;;;;4948188;29;1614;-68
2022/04/02 17:14:27;;;;;;;;;;;;;;;;;;5014069;28;1652;-68
2022/04/02 17:16:55;;;;;;;;;;;;;;;;;;4948232;29;795;-69
2022/04/02 17:19:39;;;;;;;;;;;;;;;;;;4947749;29;1560;-69
2022/04/02 17:22:11;;;;;;;;;;;;;;;;;;4947592;29;783;-70
2022/04/02 17:24:38;;;;;;;;;;;;;;;;;;4947681;29;1614;-71
2022/04/02 17:27:12;;;;;;;;;;;;;;;;;;4959235;28;1256;-70
2022/04/02 17:29:39;;;;;;;;;;;;;;;;;;4958482;28;1981;-69